Frankfort, MI

8:16 PM EST on February 26, 2015 (GMT -0500)
Frankfort | Change Station
CLOSE
Current Station
Airport
Location: Frankfort,
Elevation: 633 ft
Nearby Weather Stations

Elev 633 ft 44.63 °N, 86.20 °W | Updated 22 minutes ago

Clear
Clear
-4 °F
Feels Like -4 °F
N
0
Wind Variable Wind from North

Today
High -- | Low -- °F
--% Chance of Precip.
Yesterday
High -- | Low -- °F
Precip. -- in
7:27 AM 6:28 PM
Waxing Gibbous, 64% visible
Pressure 30.35 in
Visibility 10.0 miles
Clouds Clear
Dew Point -8 °F
Humidity 85%
Rainfall 0.00 in
Snow Depth Not available.
UV 0 out of 12
Pollen .30 out of 12
Air Quality Not available.
Flu Activity Not available.
METAR KFKS 270054Z AUTO 00000KT 10SM CLR M20/M22 A3035 RMK AO2 T12001220

More Conditions Fewer Conditions

Pressure 30.35 in
Visibility 10.0 miles
Clouds Clear
Dew Point -8 °F
Humidity 85%
Rainfall 0.00 in
Snow Depth Not available.
UV 0 out of 12
Pollen .30 out of 12
Air Quality Not available.
Flu Activity Not available.
METAR KFKS 270054Z AUTO 00000KT 10SM CLR M20/M22 A3035 RMK AO2 T12001220

More Conditions Fewer Conditions

Nowcast | as of 8:00 PM EST on February 26, 2015

At 9 PM...mostly cloudy. Temperature 2 above. Light winds. At 11 PM...mostly cloudy. Temperature 1 below. Light winds. At 1 am...numerous snow showers. Temperature 2 below. Light winds. At 3 am...numerous snow showers. Temperature 2 below. Light winds.

×

10-Day Weather Forecast

Almanac

Astronomy

Feb. 26, 2015 Rise Set
Actual Time
Civil Twilight
Nautical Twilight
Astronomical Twilight
Moon
Length of Visible Light
Length of Day
Tomorrow will be .
, % of the Moon is Illuminated

Today's Extremes

State Highs State Lows

Community

WunderPhotos

Upload Photos

1,800,553 photos uploaded!

WunderBlogs® & News

Nearby

Air Quality

  Air Quality AQ Index Pollutant
Not available.

Snow Depth

Station Depth Elevation

Earthquake Activity

City Distance Mag. Time & Date
Minimum magnitude displayed is 2.5.

Coastal Water Temperatures

Place Temperature

Nearby Weather Stations